Time;durP1;ratioP1;P1;durP2;ratioP2;P2;SDS_P1;SDS_P2;PMS_P1;PMS_P2;Temp;Humidity;BMP_temperature;BMP_pressure;BME280_temperature;BME280_humidity;BME280_pressure;Samples;Min_cycle;Max_cycle;Signal;HPM_P1;HPM_P2
2022/07/02 00:00:05;;;;;;;4.23;3.93;;;17.70;96.50;;;;;;5117360;27;20183;-73
2022/07/02 00:02:36;;;;;;;4.47;4.10;;;17.70;96.80;;;;;;5132232;27;20364;-77
2022/07/02 00:05:06;;;;;;;4.80;4.50;;;17.70;96.70;;;;;;5133920;27;20389;-73
2022/07/02 00:07:32;;;;;;;5.60;3.90;;;17.70;96.70;;;;;;5132955;27;20416;-77
2022/07/02 00:09:59;;;;;;;4.60;4.23;;;17.70;96.90;;;;;;5133744;27;20790;-73
2022/07/02 00:12:27;;;;;;;4.20;4.00;;;17.70;96.90;;;;;;5079566;27;20443;-73
2022/07/02 00:14:56;;;;;;;4.87;4.53;;;17.70;97.00;;;;;;5126245;27;20490;-74
2022/07/02 00:17:22;;;;;;;3.90;3.70;;;17.60;96.70;;;;;;5112900;28;20485;-74
2022/07/02 00:19:50;;;;;;;4.07;3.80;;;17.50;96.10;;;;;;5115961;27;20476;-73
2022/07/02 00:22:17;;;;;;;4.00;3.70;;;17.40;96.60;;;;;;5133060;27;20495;-73
2022/07/02 00:24:43;;;;;;;3.70;3.37;;;17.30;96.90;;;;;;5132826;27;20478;-73
2022/07/02 00:27:16;;;;;;;4.07;3.87;;;17.40;97.00;;;;;;5120549;27;20514;-73
2022/07/02 00:29:59;;;;;;;4.07;3.87;;;17.40;97.00;;;;;;5112224;28;20397;-74
2022/07/02 00:32:28;;;;;;;3.83;3.53;;;17.40;97.30;;;;;;5112944;28;20417;-73
2022/07/02 00:34:57;;;;;;;4.27;4.00;;;17.40;97.30;;;;;;5111131;28;20425;-73
2022/07/02 00:37:25;;;;;;;4.00;3.60;;;17.40;97.10;;;;;;5112455;28;20823;-76
2022/07/02 00:39:51;;;;;;;4.30;3.90;;;17.40;97.30;;;;;;5132071;27;21150;-74
2022/07/02 00:42:19;;;;;;;4.80;4.50;;;17.40;97.20;;;;;;5130705;27;20452;-73
2022/07/02 00:44:46;;;;;;;4.20;3.90;;;17.40;97.00;;;;;;5129901;27;20193;-73
2022/07/02 00:47:13;;;;;;;3.80;3.60;;;17.40;96.90;;;;;;5133355;27;20430;-74
2022/07/02 00:49:39;;;;;;;4.67;4.37;;;17.30;96.90;;;;;;5132426;27;20412;-73
2022/07/02 00:52:06;;;;;;;4.30;4.10;;;17.30;96.90;;;;;;5132900;28;20439;-73
2022/07/02 00:54:32;;;;;;;4.00;3.80;;;17.30;97.00;;;;;;5132970;28;20401;-77
2022/07/02 00:56:58;;;;;;;4.60;4.20;;;17.40;97.10;;;;;;5122506;28;20563;-73
2022/07/02 00:59:25;;;;;;;4.00;3.80;;;17.30;97.00;;;;;;5112654;28;20393;-73
2022/07/02 01:01:52;;;;;;;4.70;4.43;;;17.30;96.90;;;;;;5110417;28;20458;-73
2022/07/02 01:04:19;;;;;;;4.00;3.70;;;17.20;96.60;;;;;;5117508;28;20432;-73
2022/07/02 01:06:45;;;;;;;3.70;3.50;;;17.20;96.70;;;;;;5132302;28;20420;-73
2022/07/02 01:12:01;;;;;;;3.57;3.37;;;17.10;97.00;;;;;;5111547;28;20925;-73
2022/07/02 01:14:28;;;;;;;4.70;4.40;;;17.10;97.10;;;;;;5112194;28;20418;-73
2022/07/02 01:16:55;;;;;;;3.50;3.23;;;17.10;97.10;;;;;;5111485;28;20416;-73
2022/07/02 01:19:22;;;;;;;3.70;3.50;;;17.10;97.40;;;;;;5112479;28;20504;-73
2022/07/02 01:22:13;;;;;;;4.40;4.10;;;17.10;97.40;;;;;;5111529;28;20536;-73
2022/07/02 01:24:40;;;;;;;3.43;3.23;;;17.10;97.50;;;;;;5111341;28;20898;-74
2022/07/02 01:27:06;;;;;;;4.13;3.80;;;17.20;97.40;;;;;;5110043;28;20775;-73
2022/07/02 01:29:32;;;;;;;3.60;3.50;;;17.10;97.30;;;;;;5129514;28;20466;-74
2022/07/02 01:31:58;;;;;;;3.73;3.33;;;17.10;97.20;;;;;;5132090;28;20424;-73
2022/07/02 01:34:24;;;;;;;4.00;3.80;;;17.10;97.10;;;;;;5132015;28;20175;-73
2022/07/02 01:36:50;;;;;;;3.73;3.53;;;17.00;97.00;;;;;;5125959;28;20212;-73
2022/07/02 01:39:22;;;;;;;3.73;3.53;;;17.00;97.00;;;;;;5112341;28;20494;-74
2022/07/02 01:41:48;;;;;;;3.77;3.53;;;17.00;97.10;;;;;;5111385;28;20454;-73
2022/07/02 01:44:13;;;;;;;4.10;3.80;;;16.90;97.10;;;;;;5112242;28;20419;-73
2022/07/02 01:46:39;;;;;;;4.20;3.90;;;16.90;97.30;;;;;;5111406;28;20645;-75
2022/07/02 01:49:05;;;;;;;3.77;3.47;;;16.90;97.30;;;;;;5112640;28;20179;-74
2022/07/02 01:51:31;;;;;;;3.90;3.60;;;16.90;97.50;;;;;;5112134;28;20184;-73
2022/07/02 01:53:57;;;;;;;4.30;3.97;;;16.80;97.80;;;;;;5111348;28;21111;-73
2022/07/02 01:56:23;;;;;;;4.40;4.10;;;16.80;97.50;;;;;;5112264;28;20429;-73
2022/07/02 01:58:49;;;;;;;4.40;4.00;;;16.90;97.60;;;;;;5114805;28;20186;-74
2022/07/02 02:01:14;;;;;;;4.47;4.00;;;16.80;97.60;;;;;;5115426;28;20203;-73
2022/07/02 02:03:40;;;;;;;4.90;4.40;;;16.80;97.70;;;;;;5115627;27;20187;-75
2022/07/02 02:06:06;;;;;;;4.60;4.20;;;16.80;97.70;;;;;;5136243;27;20183;-73
2022/07/02 02:08:31;;;;;;;4.57;4.17;;;16.80;97.60;;;;;;5135011;27;20220;-73
2022/07/02 02:10:57;;;;;;;5.10;4.80;;;16.70;97.70;;;;;;5135347;27;20307;-73
2022/07/02 02:13:23;;;;;;;4.60;4.30;;;16.80;97.90;;;;;;5135852;27;20262;-73
2022/07/02 02:15:49;;;;;;;4.60;4.40;;;16.80;97.90;;;;;;5135246;27;20171;-73
2022/07/02 02:18:14;;;;;;;4.03;3.80;;;16.80;97.80;;;;;;5134784;27;20182;-73
2022/07/02 02:20:40;;;;;;;4.37;4.07;;;16.70;98.00;;;;;;5135117;27;20412;-76
2022/07/02 02:23:06;;;;;;;5.03;4.67;;;16.70;97.80;;;;;;5134817;27;20277;-73
2022/07/02 02:25:32;;;;;;;4.50;4.20;;;16.70;97.60;;;;;;5130966;27;20195;-73
2022/07/02 02:27:59;;;;;;;5.53;4.20;;;16.70;97.90;;;;;;5114470;28;20402;-73
2022/07/02 02:30:25;;;;;;;4.17;3.87;;;16.70;97.90;;;;;;5115282;28;20454;-73
2022/07/02 02:32:50;;;;;;;4.27;4.00;;;16.60;97.90;;;;;;5127403;27;20424;-73
2022/07/02 02:35:16;;;;;;;4.43;4.17;;;16.60;97.90;;;;;;5135647;27;20418;-73
2022/07/02 02:37:42;;;;;;;4.23;3.93;;;16.60;97.80;;;;;;5133929;27;20185;-77
2022/07/02 02:40:08;;;;;;;4.90;4.50;;;16.60;97.50;;;;;;5135543;27;20178;-73
2022/07/02 02:42:34;;;;;;;4.97;4.37;;;16.50;97.80;;;;;;5135470;27;20289;-73
2022/07/02 02:44:59;;;;;;;4.40;4.10;;;16.50;98.30;;;;;;5134743;27;20975;-74
2022/07/02 02:47:25;;;;;;;4.90;4.50;;;16.50;98.20;;;;;;5135517;27;20261;-73
2022/07/02 02:49:51;;;;;;;4.57;4.27;;;16.50;98.50;;;;;;5134672;27;20642;-73
2022/07/02 02:52:17;;;;;;;4.43;4.13;;;16.50;98.40;;;;;;5131504;27;20244;-74
2022/07/02 02:54:43;;;;;;;4.77;4.30;;;16.50;98.20;;;;;;5124337;27;20190;-76
2022/07/02 02:57:09;;;;;;;5.17;4.63;;;16.50;97.90;;;;;;5132694;27;20266;-74
2022/07/02 02:59:35;;;;;;;4.23;3.93;;;16.50;97.80;;;;;;5128934;27;20520;-74
2022/07/02 03:02:01;;;;;;;6.13;4.10;;;16.40;97.80;;;;;;5113665;28;21147;-74
2022/07/02 03:04:26;;;;;;;4.03;3.83;;;16.50;98.00;;;;;;5114522;28;20435;-73
2022/07/02 03:06:52;;;;;;;4.00;3.80;;;16.40;98.20;;;;;;5113712;28;20236;-74
2022/07/02 03:09:18;;;;;;;4.47;4.27;;;16.40;98.20;;;;;;5129824;27;20179;-73
2022/07/02 03:11:44;;;;;;;4.50;4.20;;;16.50;98.40;;;;;;5134150;27;20638;-76
2022/07/02 03:14:10;;;;;;;4.77;4.43;;;16.40;98.60;;;;;;5116588;27;20187;-72
2022/07/02 03:16:36;;;;;;;4.90;4.60;;;16.40;98.30;;;;;;5117624;27;20434;-73
2022/07/02 03:19:02;;;;;;;5.27;4.77;;;16.30;98.50;;;;;;5134137;27;20231;-73
2022/07/02 03:21:28;;;;;;;5.00;4.70;;;16.30;98.50;;;;;;5134586;27;20226;-72
2022/07/02 03:23:54;;;;;;;4.90;4.60;;;16.30;99.20;;;;;;5121595;27;20499;-73
2022/07/02 03:26:19;;;;;;;5.87;5.30;;;16.30;98.90;;;;;;5113479;28;20193;-72
2022/07/02 03:28:45;;;;;;;4.77;4.47;;;16.30;99.20;;;;;;5112500;27;20191;-74
2022/07/02 03:31:11;;;;;;;5.30;4.40;;;16.30;99.10;;;;;;5114051;27;20637;-73
2022/07/02 03:33:38;;;;;;;5.37;4.97;;;16.30;99.10;;;;;;5113725;28;20179;-73
2022/07/02 03:36:04;;;;;;;4.80;4.37;;;16.20;99.00;;;;;;5113160;28;20892;-73
2022/07/02 03:38:30;;;;;;;4.80;4.50;;;16.30;99.40;;;;;;5112684;28;20466;-73
2022/07/02 03:40:56;;;;;;;4.40;4.10;;;16.20;99.20;;;;;;5112708;28;20832;-73
2022/07/02 03:43:21;;;;;;;4.77;4.57;;;16.20;99.10;;;;;;5113528;27;20183;-73
2022/07/02 03:45:47;;;;;;;4.47;4.17;;;16.10;99.10;;;;;;5133456;27;20201;-74
2022/07/02 03:48:13;;;;;;;4.37;4.07;;;16.10;99.10;;;;;;5133924;27;20635;-73
2022/07/02 03:50:40;;;;;;;4.83;4.63;;;16.20;99.20;;;;;;5130051;27;20188;-73
2022/07/02 03:53:06;;;;;;;5.20;4.83;;;16.20;99.30;;;;;;5111862;28;20186;-73
2022/07/02 03:55:32;;;;;;;4.87;4.43;;;16.20;99.30;;;;;;5112960;28;20425;-73
2022/07/02 03:57:58;;;;;;;4.60;4.30;;;16.20;99.60;;;;;;5117801;27;20431;-73
2022/07/02 04:00:24;;;;;;;5.20;4.90;;;16.20;99.30;;;;;;5064015;27;20192;-73
2022/07/02 04:02:49;;;;;;;4.90;4.60;;;16.20;99.00;;;;;;5113317;27;20491;-74
2022/07/02 04:05:15;;;;;;;4.40;4.20;;;16.20;99.20;;;;;;5133877;27;20230;-73
2022/07/02 04:07:41;;;;;;;4.30;4.10;;;16.20;99.20;;;;;;5110131;28;20175;-73
2022/07/02 04:10:07;;;;;;;5.27;4.87;;;16.20;99.20;;;;;;5112030;27;20197;-73
2022/07/02 04:12:33;;;;;;;4.70;4.40;;;16.30;99.50;;;;;;5113271;28;20230;-73
2022/07/02 04:14:59;;;;;;;4.13;3.80;;;16.30;99.70;;;;;;5116185;27;20555;-73
2022/07/02 04:17:25;;;;;;;5.70;5.30;;;16.30;99.60;;;;;;5133801;27;20508;-73
2022/07/02 04:19:50;;;;;;;4.70;4.50;;;16.30;99.80;;;;;;5132811;27;20178;-74
2022/07/02 04:22:16;;;;;;;4.83;4.60;;;16.30;99.90;;;;;;5130166;27;20507;-73
2022/07/02 04:24:42;;;;;;;5.10;4.77;;;16.30;99.80;;;;;;5112281;28;20658;-73
2022/07/02 04:27:08;;;;;;;4.73;4.50;;;16.30;99.60;;;;;;5111465;28;20198;-73
2022/07/02 04:29:33;;;;;;;5.10;4.70;;;16.40;99.50;;;;;;5112994;28;20182;-73
2022/07/02 04:31:59;;;;;;;4.83;4.40;;;16.40;99.50;;;;;;5112180;28;20224;-73
2022/07/02 04:34:25;;;;;;;5.50;4.60;;;16.40;99.30;;;;;;5113101;28;20187;-73
2022/07/02 04:36:50;;;;;;;4.57;4.27;;;16.40;99.20;;;;;;5110797;28;20175;-74
2022/07/02 04:39:16;;;;;;;5.00;4.60;;;16.50;98.90;;;;;;5114491;27;20187;-73
2022/07/02 04:41:42;;;;;;;4.40;4.20;;;16.50;98.80;;;;;;5111517;28;20218;-73
2022/07/02 04:44:07;;;;;;;5.20;4.80;;;16.50;98.80;;;;;;5111993;28;20168;-73
2022/07/02 04:46:33;;;;;;;5.03;4.73;;;16.60;98.90;;;;;;5112769;28;20217;-73
2022/07/02 04:48:59;;;;;;;5.17;4.77;;;16.60;98.90;;;;;;5113358;28;20229;-74
2022/07/02 04:51:25;;;;;;;5.00;4.70;;;16.70;99.10;;;;;;5112704;28;20580;-73
2022/07/02 04:53:50;;;;;;;5.20;4.80;;;16.70;98.90;;;;;;5123699;28;20183;-74
2022/07/02 04:56:16;;;;;;;4.83;4.53;;;16.80;98.80;;;;;;5133217;28;20627;-73
2022/07/02 04:58:42;;;;;;;5.27;4.77;;;16.80;98.90;;;;;;5131287;28;20182;-74
2022/07/02 05:01:07;;;;;;;6.10;5.60;;;16.80;98.40;;;;;;5112769;28;20191;-73
2022/07/02 05:03:33;;;;;;;6.00;5.50;;;16.80;98.40;;;;;;5112243;28;20176;-73
2022/07/02 05:05:59;;;;;;;17.93;14.30;;;16.80;98.40;;;;;;5111516;28;20178;-73
2022/07/02 05:08:26;;;;;;;8.30;7.50;;;16.80;98.20;;;;;;5111580;28;20236;-73
2022/07/02 05:10:55;;;;;;;5.03;4.63;;;16.80;98.40;;;;;;5111747;28;20164;-74
2022/07/02 05:13:22;;;;;;;5.00;4.70;;;16.70;98.50;;;;;;5120827;28;20428;-73
2022/07/02 05:15:48;;;;;;;5.63;5.17;;;16.70;98.70;;;;;;5132911;28;20405;-74
2022/07/02 05:18:14;;;;;;;5.17;4.83;;;16.70;98.80;;;;;;5132400;28;20496;-73
2022/07/02 05:20:40;;;;;;;5.03;4.60;;;16.80;99.60;;;;;;5128805;27;20524;-73
2022/07/02 05:23:06;;;;;;;4.47;4.27;;;16.90;99.90;;;;;;5110561;28;20472;-73
2022/07/02 05:25:32;;;;;;;5.00;4.70;;;17.00;99.80;;;;;;5111587;28;20649;-73
2022/07/02 05:27:58;;;;;;;5.50;5.00;;;17.10;99.90;;;;;;5111674;28;20497;-74
2022/07/02 05:30:24;;;;;;;4.77;4.47;;;17.20;99.90;;;;;;5112387;28;20704;-74
2022/07/02 05:32:49;;;;;;;5.70;5.30;;;17.20;99.50;;;;;;5115579;28;20191;-75
2022/07/02 05:35:15;;;;;;;4.80;4.50;;;17.30;99.40;;;;;;5115951;28;20643;-74
2022/07/02 05:37:41;;;;;;;5.40;5.00;;;17.30;99.00;;;;;;5116912;27;20262;-74
2022/07/02 05:40:07;;;;;;;4.87;4.57;;;17.40;99.10;;;;;;5135828;27;20171;-74
2022/07/02 05:42:33;;;;;;;5.07;4.77;;;17.50;99.30;;;;;;5135200;27;20202;-73
2022/07/02 05:44:59;;;;;;;4.83;4.53;;;17.60;99.50;;;;;;5134303;27;20420;-74
2022/07/02 05:47:25;;;;;;;4.70;4.40;;;17.70;99.90;;;;;;5136663;27;20194;-73
2022/07/02 05:49:50;;;;;;;5.00;4.60;;;17.70;99.90;;;;;;5136115;27;20245;-75
2022/07/02 05:52:17;;;;;;;5.27;4.87;;;17.80;99.90;;;;;;5133133;27;20556;-74
2022/07/02 05:54:45;;;;;;;5.10;4.80;;;17.90;99.60;;;;;;5133015;27;20260;-74
2022/07/02 05:57:12;;;;;;;5.10;4.70;;;17.90;99.20;;;;;;5135663;27;20412;-73
2022/07/02 05:59:37;;;;;;;6.27;5.77;;;18.00;99.20;;;;;;5136381;27;20457;-73
2022/07/02 06:02:04;;;;;;;4.70;4.50;;;18.00;98.70;;;;;;5133050;27;20468;-74
2022/07/02 06:04:31;;;;;;;4.87;4.40;;;18.10;98.30;;;;;;5117737;27;20523;-73
2022/07/02 06:09:44;;;;;;;4.83;4.50;;;18.20;98.10;;;;;;5136289;27;20417;-73
2022/07/02 06:12:10;;;;;;;4.87;4.57;;;18.30;98.60;;;;;;5135543;27;21031;-73
2022/07/02 06:14:36;;;;;;;5.23;4.73;;;18.40;99.30;;;;;;5136339;27;20179;-73
2022/07/02 06:17:02;;;;;;;4.80;4.50;;;18.50;98.30;;;;;;5135325;27;20667;-74
2022/07/02 06:19:28;;;;;;;5.70;5.30;;;18.50;98.10;;;;;;5126427;27;20188;-75
2022/07/02 06:21:54;;;;;;;4.53;4.30;;;18.50;97.80;;;;;;5119520;27;20476;-75
2022/07/02 06:24:20;;;;;;;5.00;4.80;;;18.60;98.30;;;;;;5113876;28;20432;-74
2022/07/02 06:26:45;;;;;;;5.00;4.60;;;18.70;98.70;;;;;;5128418;27;20536;-74
2022/07/02 06:29:11;;;;;;;5.40;5.00;;;18.70;98.00;;;;;;5115953;27;20180;-74
2022/07/02 06:31:37;;;;;;;5.00;4.70;;;18.80;98.10;;;;;;5114830;27;20199;-72
2022/07/02 06:34:03;;;;;;;4.83;4.53;;;18.90;99.90;;;;;;5130473;27;20179;-73
2022/07/02 06:36:29;;;;;;;4.20;3.90;;;19.20;99.90;;;;;;5122309;27;20171;-72
2022/07/02 06:38:55;;;;;;;5.13;4.67;;;19.50;99.90;;;;;;5119194;27;20425;-73
2022/07/02 06:44:06;;;;;;;4.83;4.63;;;19.90;96.80;;;;;;5126538;27;20588;-74
2022/07/02 06:46:33;;;;;;;4.33;4.13;;;20.20;98.90;;;;;;5106500;27;20482;-73
2022/07/02 06:48:58;;;;;;;4.10;3.90;;;20.50;98.70;;;;;;5114422;27;20455;-73
2022/07/02 06:51:24;;;;;;;4.43;4.23;;;20.90;97.80;;;;;;5111278;27;20652;-73
2022/07/02 06:53:50;;;;;;;4.10;3.90;;;21.10;95.80;;;;;;5104900;28;20789;-72
2022/07/02 06:56:16;;;;;;;3.67;3.50;;;21.30;96.10;;;;;;5142178;27;20186;-73
2022/07/02 06:58:42;;;;;;;3.43;3.23;;;21.50;95.80;;;;;;5117350;27;20410;-73
2022/07/02 07:01:07;;;;;;;3.97;3.73;;;21.70;95.00;;;;;;5134304;27;20175;-73
2022/07/02 07:03:33;;;;;;;3.80;3.60;;;21.90;94.60;;;;;;5119021;27;20627;-74
2022/07/02 07:05:59;;;;;;;3.50;3.23;;;22.10;94.10;;;;;;5080225;28;20223;-72
2022/07/02 07:08:24;;;;;;;3.30;3.10;;;22.10;93.00;;;;;;5103520;27;20179;-72
2022/07/02 07:10:50;;;;;;;3.60;3.40;;;22.20;93.10;;;;;;5113475;27;20204;-72
2022/07/02 07:13:16;;;;;;;3.40;3.20;;;22.20;92.00;;;;;;5117028;27;20191;-74
2022/07/02 07:15:41;;;;;;;4.37;4.07;;;22.30;92.50;;;;;;5113471;28;20575;-74
2022/07/02 07:18:07;;;;;;;3.50;3.20;;;22.40;92.30;;;;;;5114209;28;20221;-73
2022/07/02 07:20:34;;;;;;;3.27;2.97;;;22.50;91.90;;;;;;5112769;28;20666;-72
2022/07/02 07:22:59;;;;;;;3.40;3.20;;;22.50;91.90;;;;;;5124994;27;20240;-77
2022/07/02 07:25:26;;;;;;;2.80;2.70;;;22.60;91.60;;;;;;5116719;27;20436;-73
2022/07/02 07:27:52;;;;;;;3.80;3.43;;;22.60;86.60;;;;;;5101463;28;20626;-73
2022/07/02 07:30:18;;;;;;;3.13;2.93;;;22.40;84.40;;;;;;5123153;27;20421;-74
2022/07/02 07:32:44;;;;;;;2.13;2.03;;;22.30;89.30;;;;;;5132485;27;20177;-72
2022/07/02 07:35:10;;;;;;;3.20;3.00;;;22.10;81.80;;;;;;5113899;28;20172;-72
2022/07/02 07:37:36;;;;;;;2.77;2.57;;;22.10;88.10;;;;;;5114340;28;20409;-72
2022/07/02 07:40:04;;;;;;;2.40;2.13;;;22.20;89.40;;;;;;5126183;27;20429;-72
2022/07/02 07:42:30;;;;;;;2.30;2.10;;;22.30;84.70;;;;;;5115518;27;20461;-72
2022/07/02 07:44:57;;;;;;;2.87;2.60;;;22.40;82.40;;;;;;5113627;28;20393;-77
2022/07/02 07:47:23;;;;;;;2.27;2.07;;;22.40;83.80;;;;;;5110094;27;20177;-73
2022/07/02 07:49:49;;;;;;;2.30;2.10;;;22.50;84.40;;;;;;5132380;27;20432;-72
2022/07/02 07:52:14;;;;;;;2.97;2.27;;;22.50;79.10;;;;;;5111224;27;20201;-72
2022/07/02 07:54:40;;;;;;;1.90;1.80;;;22.40;81.20;;;;;;5132754;27;20412;-72
2022/07/02 07:57:06;;;;;;;1.90;1.80;;;22.50;81.50;;;;;;5110263;27;20201;-73
2022/07/02 07:59:32;;;;;;;2.00;1.90;;;22.70;82.30;;;;;;5128040;27;20171;-72
2022/07/02 08:01:58;;;;;;;2.40;2.10;;;22.70;78.30;;;;;;5122544;27;20474;-73
2022/07/02 08:04:24;;;;;;;2.33;2.23;;;22.70;76.70;;;;;;5113965;28;20174;-72
2022/07/02 08:06:50;;;;;;;2.40;2.20;;;22.90;79.50;;;;;;5116725;27;20202;-73
2022/07/02 08:09:16;;;;;;;2.20;2.00;;;23.00;78.70;;;;;;5113127;28;20179;-72
2022/07/02 08:11:41;;;;;;;1.57;1.50;;;23.10;77.20;;;;;;5113905;28;20591;-73
2022/07/02 08:14:07;;;;;;;2.20;2.00;;;23.00;73.40;;;;;;5111755;28;20964;-73
2022/07/02 08:16:33;;;;;;;2.20;2.10;;;23.10;74.40;;;;;;5112517;28;20195;-72
2022/07/02 08:18:58;;;;;;;2.37;2.27;;;23.20;74.40;;;;;;5113169;28;20227;-73
2022/07/02 08:21:24;;;;;;;2.40;2.20;;;23.30;76.90;;;;;;5104640;28;20262;-73
2022/07/02 08:23:50;;;;;;;2.50;2.40;;;23.50;78.50;;;;;;5112139;28;20180;-73
2022/07/02 08:26:16;;;;;;;2.97;2.17;;;23.60;75.30;;;;;;5111636;28;20205;-73
2022/07/02 08:28:42;;;;;;;2.17;2.07;;;23.80;74.90;;;;;;5113619;28;20262;-73
2022/07/02 08:31:08;;;;;;;3.47;2.70;;;23.90;73.40;;;;;;5121361;27;20519;-73
2022/07/02 08:33:34;;;;;;;2.10;2.00;;;24.10;74.90;;;;;;5111651;28;20176;-73
2022/07/02 08:36:01;;;;;;;2.17;2.00;;;24.20;73.30;;;;;;5112897;28;20406;-77
2022/07/02 08:38:27;;;;;;;1.70;1.60;;;24.30;70.90;;;;;;5112713;28;20408;-73
2022/07/02 08:40:52;;;;;;;2.00;1.90;;;24.40;71.00;;;;;;5112631;28;20780;-70
2022/07/02 08:43:24;;;;;;;2.40;2.20;;;24.50;71.00;;;;;;5117420;27;20956;-71
2022/07/02 08:45:51;;;;;;;1.80;1.80;;;24.60;71.00;;;;;;5125755;27;20182;-71
2022/07/02 08:48:20;;;;;;;2.30;2.10;;;24.60;69.60;;;;;;5122636;28;20571;-71
2022/07/02 08:50:47;;;;;;;2.77;2.30;;;24.60;66.60;;;;;;5112663;28;20417;-71
2022/07/02 08:53:16;;;;;;;2.20;2.00;;;24.60;70.60;;;;;;5111572;28;20957;-72
2022/07/02 08:55:43;;;;;;;2.40;2.30;;;24.70;66.80;;;;;;5112302;28;20908;-72
2022/07/02 08:58:11;;;;;;;2.13;2.03;;;24.80;70.70;;;;;;5108851;28;20432;-71
2022/07/02 09:00:38;;;;;;;2.10;2.00;;;24.90;68.60;;;;;;5112662;28;20413;-71
2022/07/02 09:03:05;;;;;;;5.97;2.00;;;25.00;65.80;;;;;;5106268;28;20499;-76
2022/07/02 09:05:32;;;;;;;2.20;2.10;;;24.90;64.00;;;;;;5112531;28;20477;-72
2022/07/02 09:07:58;;;;;;;2.10;1.90;;;25.00;66.00;;;;;;5116600;28;20490;-70
2022/07/02 09:10:26;;;;;;;2.43;2.20;;;25.10;63.20;;;;;;5132600;27;20780;-71
2022/07/02 09:12:54;;;;;;;1.60;1.60;;;25.10;67.40;;;;;;5116427;28;20591;-70
2022/07/02 09:15:20;;;;;;;2.00;1.90;;;25.30;67.80;;;;;;5127063;27;20435;-70
2022/07/02 09:17:45;;;;;;;2.40;2.30;;;25.40;65.80;;;;;;5134827;27;20507;-71
2022/07/02 09:20:12;;;;;;;2.40;2.30;;;25.50;64.40;;;;;;5112554;27;20176;-71
2022/07/02 09:22:47;;;;;;;2.00;1.90;;;25.60;64.30;;;;;;5142862;27;20268;-71
2022/07/02 09:25:17;;;;;;;1.77;1.67;;;25.60;64.60;;;;;;5116471;27;20397;-71
2022/07/02 09:27:45;;;;;;;2.03;1.93;;;25.70;62.80;;;;;;5130614;27;20932;-71
2022/07/02 09:30:14;;;;;;;1.97;1.80;;;25.70;59.60;;;;;;5118123;27;20421;-71
2022/07/02 09:32:42;;;;;;;1.70;1.60;;;25.50;57.50;;;;;;5115222;27;20935;-71
2022/07/02 09:35:17;;;;;;;1.97;1.90;;;25.40;55.80;;;;;;5115553;28;20409;-71
2022/07/02 09:37:43;;;;;;;1.93;1.83;;;25.50;59.30;;;;;;5116420;28;20763;-71
2022/07/02 09:40:09;;;;;;;2.57;2.13;;;25.60;57.40;;;;;;5100255;28;20429;-71
2022/07/02 09:42:35;;;;;;;3.80;2.17;;;25.60;59.10;;;;;;5114660;28;20576;-71
2022/07/02 09:45:03;;;;;;;2.33;2.13;;;25.80;60.20;;;;;;5115941;28;20846;-71
2022/07/02 09:47:37;;;;;;;1.80;1.70;;;25.90;61.20;;;;;;5112110;27;20469;-71
2022/07/02 09:50:11;;;;;;;1.70;1.60;;;25.90;59.30;;;;;;5136509;27;20412;-75
2022/07/02 09:52:49;;;;;;;2.20;2.00;;;25.90;59.40;;;;;;5136657;27;20832;-71
2022/07/02 09:55:31;;;;;;;2.20;2.00;;;25.70;57.40;;;;;;5133544;27;20823;-70
2022/07/02 09:58:00;;;;;;;4.33;2.10;;;25.80;57.50;;;;;;5122672;27;20516;-71
2022/07/02 10:00:28;;;;;;;1.90;1.83;;;25.90;58.20;;;;;;5115044;28;20411;-71
2022/07/02 10:02:56;;;;;;;1.97;1.87;;;25.90;57.80;;;;;;5115191;28;20967;-71
2022/07/02 10:05:33;;;;;;;3.03;2.30;;;26.00;58.50;;;;;;5124634;27;20424;-73
2022/07/02 10:08:00;;;;;;;2.10;2.00;;;26.20;58.70;;;;;;5118654;27;20452;-71
2022/07/02 10:10:39;;;;;;;1.90;1.80;;;25.90;57.80;;;;;;5110817;27;20424;-71
2022/07/02 10:13:10;;;;;;;2.10;1.83;;;25.70;55.30;;;;;;5132879;27;20518;-76
2022/07/02 10:15:42;;;;;;;1.80;1.80;;;25.90;58.50;;;;;;5127800;27;20504;-71
2022/07/02 10:18:08;;;;;;;2.10;2.00;;;26.00;58.30;;;;;;5134364;27;20782;-75
2022/07/02 10:20:35;;;;;;;1.97;1.87;;;26.20;58.10;;;;;;5133400;27;20432;-70
2022/07/02 10:23:04;;;;;;;1.87;1.87;;;25.90;55.10;;;;;;5133308;27;20470;-72
2022/07/02 10:25:33;;;;;;;2.00;1.90;;;26.00;58.80;;;;;;5115604;27;20433;-72
2022/07/02 10:28:00;;;;;;;1.90;1.80;;;26.20;58.20;;;;;;5116667;27;20420;-71
2022/07/02 10:32:55;;;;;;;2.10;2.00;;;26.40;55.70;;;;;;5116490;27;20473;-76
2022/07/02 10:35:23;;;;;;;1.87;1.77;;;26.40;57.80;;;;;;5113177;27;20933;-73
2022/07/02 10:37:59;;;;;;;1.90;1.80;;;26.50;56.70;;;;;;5122850;27;20180;-72
2022/07/02 10:40:25;;;;;;;48.07;42.97;;;26.30;54.60;;;;;;5117037;27;20523;-71
2022/07/02 10:42:53;;;;;;;20.97;18.50;;;26.20;57.70;;;;;;5115410;28;20506;-72
2022/07/02 10:45:23;;;;;;;63.90;57.13;;;26.30;57.40;;;;;;5113434;28;20423;-72
2022/07/02 10:48:08;;;;;;;2.30;2.20;;;26.50;59.00;;;;;;5117302;27;20433;-78
2022/07/02 10:50:37;;;;;;;2.33;2.20;;;26.20;54.70;;;;;;5125050;27;20537;-72
2022/07/02 10:53:21;;;;;;;2.10;2.00;;;26.10;57.80;;;;;;5118280;27;20523;-71
2022/07/02 10:55:58;;;;;;;2.13;2.03;;;26.10;55.50;;;;;;5112530;27;20425;-72
2022/07/02 10:58:31;;;;;;;2.60;2.40;;;25.30;56.40;;;;;;5110137;28;20504;-71
2022/07/02 11:01:12;;;;;;;2.40;2.07;;;25.30;57.60;;;;;;5114353;28;20885;-72
2022/07/02 11:03:38;;;;;;;2.23;2.13;;;25.70;58.20;;;;;;5111403;28;20452;-72
2022/07/02 11:06:07;;;;;;;2.13;2.03;;;25.80;56.20;;;;;;5113379;28;20448;-72
2022/07/02 11:08:43;;;;;;;2.33;2.23;;;25.70;55.10;;;;;;5113976;28;20410;-72
2022/07/02 11:11:11;;;;;;;2.70;2.50;;;25.70;55.90;;;;;;5115021;27;20463;-72
2022/07/02 11:13:54;;;;;;;3.10;2.90;;;26.00;56.60;;;;;;5114005;27;20775;-71
2022/07/02 11:16:40;;;;;;;1.50;1.50;;;26.20;58.60;;;;;;5114254;28;20489;-71
2022/07/02 11:19:11;;;;;;;1.90;1.83;;;26.50;57.60;;;;;;5113384;28;20493;-71
2022/07/02 11:21:39;;;;;;;2.00;1.90;;;26.70;56.50;;;;;;5111200;27;20465;-74
2022/07/02 11:24:06;;;;;;;2.30;2.20;;;26.90;57.50;;;;;;5112703;28;20457;-70
2022/07/02 11:26:32;;;;;;;1.70;1.70;;;27.00;57.70;;;;;;5111400;28;20433;-71
2022/07/02 11:29:03;;;;;;;3.23;2.57;;;27.30;56.00;;;;;;5110626;27;20426;-74
2022/07/02 11:31:30;;;;;;;1.97;1.87;;;27.40;57.10;;;;;;5093438;27;20418;-70
2022/07/02 11:33:56;;;;;;;2.20;1.97;;;27.50;55.80;;;;;;5112968;28;20947;-70
2022/07/02 11:36:23;;;;;;;2.00;1.90;;;27.60;55.30;;;;;;5117974;27;20566;-72
2022/07/02 11:38:50;;;;;;;2.23;2.03;;;27.20;55.00;;;;;;5123937;27;20927;-72
2022/07/02 11:41:22;;;;;;;2.30;2.07;;;27.30;55.90;;;;;;5119058;27;20421;-70
2022/07/02 11:43:50;;;;;;;4.20;2.53;;;27.20;53.80;;;;;;5113930;28;20561;-70
2022/07/02 11:46:24;;;;;;;2.03;1.93;;;27.30;54.90;;;;;;5112800;27;20779;-71
2022/07/02 11:48:52;;;;;;;1.67;1.67;;;27.30;53.40;;;;;;5114238;28;20478;-70
2022/07/02 11:51:21;;;;;;;1.93;1.90;;;27.30;53.80;;;;;;5112742;27;20433;-71
2022/07/02 11:54:01;;;;;;;3.03;2.93;;;27.10;52.60;;;;;;5132725;27;20404;-69
2022/07/02 11:56:27;;;;;;;2.30;2.20;;;27.10;51.50;;;;;;5133386;27;20409;-69
2022/07/02 11:58:54;;;;;;;2.50;2.40;;;26.90;52.70;;;;;;5134426;27;20404;-70
2022/07/02 12:01:31;;;;;;;2.40;2.30;;;27.00;54.50;;;;;;5132452;27;20485;-70
2022/07/02 12:04:02;;;;;;;4.30;4.00;;;27.00;53.40;;;;;;5133343;27;20926;-70
2022/07/02 12:06:34;;;;;;;2.90;2.80;;;27.10;55.30;;;;;;5132311;27;20847;-70
2022/07/02 12:09:01;;;;;;;3.80;3.60;;;27.30;55.80;;;;;;5116237;27;20411;-70
2022/07/02 12:11:28;;;;;;;2.93;2.73;;;27.40;54.40;;;;;;5132515;27;20415;-70
2022/07/02 12:13:55;;;;;;;2.70;2.50;;;27.50;54.50;;;;;;5133047;27;20412;-71
2022/07/02 12:16:24;;;;;;;3.77;3.57;;;27.60;54.80;;;;;;5117517;27;20426;-71
2022/07/02 12:19:02;;;;;;;2.40;2.30;;;27.80;54.60;;;;;;5111963;28;20433;-71
2022/07/02 12:21:38;;;;;;;3.33;3.13;;;28.00;56.60;;;;;;5111744;28;20475;-71
2022/07/02 12:24:25;;;;;;;3.90;3.60;;;27.80;54.90;;;;;;5113369;28;20401;-71
2022/07/02 12:26:59;;;;;;;2.33;2.23;;;28.00;56.70;;;;;;5102322;28;20425;-70
2022/07/02 12:32:27;;;;;;;4.13;3.83;;;27.50;53.00;;;;;;5112858;28;20401;-71
2022/07/02 12:35:00;;;;;;;2.73;2.20;;;27.60;54.40;;;;;;5113131;28;20433;-71
2022/07/02 12:37:28;;;;;;;2.40;2.30;;;27.60;54.20;;;;;;5111475;28;20428;-70
2022/07/02 12:40:01;;;;;;;2.20;2.10;;;27.60;53.00;;;;;;5113215;28;20410;-70
2022/07/02 12:42:29;;;;;;;2.60;2.50;;;27.40;50.90;;;;;;5112149;28;20536;-70
2022/07/02 12:45:01;;;;;;;2.20;2.10;;;27.40;52.60;;;;;;5111804;28;20764;-70
2022/07/02 12:47:35;;;;;;;2.40;2.30;;;27.40;53.30;;;;;;5112737;28;20420;-70
2022/07/02 12:50:04;;;;;;;2.83;1.80;;;27.50;53.60;;;;;;5112049;28;20795;-72
2022/07/02 12:52:42;;;;;;;5.33;4.80;;;27.50;53.60;;;;;;5112551;28;20405;-70
2022/07/02 12:55:26;;;;;;;2.20;2.20;;;27.60;55.50;;;;;;5113258;28;20417;-70
2022/07/02 12:57:53;;;;;;;1.90;1.80;;;27.80;55.30;;;;;;5111936;28;20905;-71
2022/07/02 13:00:19;;;;;;;2.53;2.43;;;27.90;56.60;;;;;;5111356;28;20417;-71